createdAt,value
2019-02-22T00:00:47.426Z,67.72
2019-02-22T00:03:18.166Z,64.37
2019-02-22T00:05:48.918Z,64.07
2019-02-22T00:08:19.981Z,64.58
2019-02-22T00:10:50.975Z,66.85
2019-02-22T00:13:21.747Z,67.37
2019-02-22T00:15:53.400Z,65.70
2019-02-22T00:18:24.099Z,67.62
2019-02-22T00:20:54.954Z,72.23
2019-02-22T00:23:26.068Z,71.95
2019-02-22T00:25:56.812Z,66.22
2019-02-22T00:28:27.676Z,67.72
2019-02-22T00:30:58.786Z,64.07
2019-02-22T00:33:29.603Z,67.35
2019-02-22T00:36:00.436Z,69.62
2019-02-22T00:38:31.447Z,64.87
2019-02-22T00:41:02.337Z,63.35
2019-02-22T00:43:33.484Z,62.20
2019-02-22T00:46:04.348Z,61.30
2019-02-22T00:48:35.198Z,59.63
2019-02-22T00:51:06.342Z,58.78
2019-02-22T00:53:37.205Z,59.77
2019-02-22T00:56:08.036Z,56.88
2019-02-22T00:58:39.778Z,59.20
2019-02-22T01:01:10.634Z,53.00
2019-02-22T01:03:41.547Z,53.58
2019-02-22T01:06:12.281Z,56.28
2019-02-22T01:08:43.258Z,54.40
2019-02-22T01:11:14.496Z,55.43
2019-02-22T01:13:45.605Z,56.02
2019-02-22T01:16:16.522Z,51.95
2019-02-22T01:18:47.357Z,52.90
2019-02-22T01:21:18.114Z,54.13
2019-02-22T01:23:48.995Z,53.73
2019-02-22T01:26:19.745Z,52.58
2019-02-22T01:28:50.478Z,52.10
2019-02-22T01:31:21.266Z,55.03
2019-02-22T01:33:54.101Z,53.50
2019-02-22T01:36:24.525Z,55.43
2019-02-22T01:38:55.332Z,54.23
2019-02-22T01:41:26.460Z,53.48
2019-02-22T01:43:57.499Z,55.78
2019-02-22T01:46:28.613Z,56.25
2019-02-22T01:48:59.439Z,57.35
2019-02-22T01:51:30.211Z,57.43
2019-02-22T01:54:00.979Z,57.00
2019-02-22T01:56:32.071Z,56.30
2019-02-22T01:59:02.921Z,59.93
2019-02-22T02:01:34.023Z,57.30
2019-02-22T02:04:05.236Z,59.48
2019-02-22T02:06:36.063Z,62.10
2019-02-22T02:09:07.261Z,63.48
2019-02-22T02:11:38.683Z,64.77
2019-02-22T02:14:10.219Z,70.22
2019-02-22T02:16:41.245Z,68.78
2019-02-22T02:19:12.057Z,66.60
2019-02-22T02:21:43.241Z,66.30
2019-02-22T02:24:13.999Z,64.85
2019-02-22T02:26:44.732Z,66.90
2019-02-22T02:29:15.498Z,65.03
2019-02-22T02:31:46.330Z,62.95
2019-02-22T02:34:17.184Z,61.17
2019-02-22T02:36:48.987Z,65.85
2019-02-22T02:39:19.841Z,66.75
2019-02-22T02:41:50.960Z,63.98
2019-02-22T02:44:21.818Z,66.10
2019-02-22T02:46:52.863Z,65.47
2019-02-22T02:49:23.919Z,63.98
2019-02-22T02:51:54.728Z,64.25
2019-02-22T02:54:25.606Z,68.47
2019-02-22T02:56:56.484Z,66.65
2019-02-22T02:59:27.329Z,62.15
2019-02-22T03:01:59.038Z,59.38
2019-02-22T03:04:30.039Z,59.88
2019-02-22T03:07:06.544Z,60.40
2019-02-22T03:09:37.776Z,59.83
2019-02-22T03:12:08.518Z,59.42
2019-02-22T03:14:39.763Z,56.20
2019-02-22T03:17:10.888Z,60.00
2019-02-22T03:19:41.950Z,61.85
2019-02-22T03:22:12.791Z,59.70
2019-02-22T03:24:43.828Z,65.62
2019-02-22T03:27:14.910Z,67.00
2019-02-22T03:29:45.694Z,64.30
2019-02-22T03:32:16.549Z,67.22
2019-02-22T03:34:47.498Z,68.67
2019-02-22T03:37:18.626Z,66.10
2019-02-22T03:39:49.791Z,63.83
2019-02-22T03:42:32.671Z,63.63
2019-02-22T03:45:04.705Z,63.53
2019-02-22T03:47:35.591Z,63.42
2019-02-22T03:50:06.642Z,62.20
2019-02-22T03:52:41.676Z,61.80
2019-02-22T03:55:12.772Z,63.23
2019-02-22T03:57:43.782Z,66.65
2019-02-22T04:00:15.192Z,66.12
2019-02-22T04:02:46.257Z,60.87
2019-02-22T04:05:17.682Z,58.97
2019-02-22T04:07:48.429Z,58.02
2019-02-22T04:10:19.606Z,60.53
2019-02-22T04:12:50.362Z,60.60
2019-02-22T04:15:21.230Z,60.90
2019-02-22T04:17:52.005Z,62.38
2019-02-22T04:20:23.054Z,63.42
2019-02-22T04:22:53.817Z,62.85
2019-02-22T04:25:24.579Z,61.67
2019-02-22T04:27:55.333Z,60.63
2019-02-22T04:30:26.104Z,62.08
2019-02-22T04:32:56.859Z,63.98
2019-02-22T04:35:27.638Z,69.60
2019-02-22T04:37:58.414Z,71.42
2019-02-22T04:40:29.479Z,68.20
2019-02-22T04:43:00.238Z,70.70
2019-02-22T04:45:31.074Z,68.50
2019-02-22T04:48:01.909Z,74.75
2019-02-22T04:50:32.736Z,76.82
2019-02-22T04:53:03.471Z,78.97
2019-02-22T04:55:34.517Z,80.77
2019-02-22T04:58:05.567Z,80.33
2019-02-22T05:00:36.619Z,87.83
2019-02-22T05:03:07.654Z,85.57
2019-02-22T05:05:38.428Z,89.83
2019-02-22T05:08:09.232Z,96.63
2019-02-22T05:10:40.060Z,93.58
2019-02-22T05:13:11.667Z,97.62
2019-02-22T05:15:42.449Z,101.47
2019-02-22T05:18:13.201Z,101.05
2019-02-22T05:20:44.275Z,101.75
2019-02-22T05:23:15.035Z,108.90
2019-02-22T05:25:46.201Z,108.13
2019-02-22T05:28:17.315Z,106.83
2019-02-22T05:30:48.112Z,111.50
2019-02-22T05:33:19.114Z,113.65
2019-02-22T05:35:50.189Z,109.80
2019-02-22T05:38:20.932Z,111.08
2019-02-22T05:40:52.013Z,115.12
2019-02-22T05:43:22.872Z,112.90
2019-02-22T05:45:54.010Z,121.00
2019-02-22T05:48:25.598Z,118.60
2019-02-22T05:50:57.037Z,117.55
2019-02-22T05:53:28.139Z,115.77
2019-02-22T05:55:58.905Z,124.15
2019-02-22T05:58:29.742Z,130.87
2019-02-22T06:01:00.834Z,133.93
2019-02-22T06:03:31.601Z,129.00
2019-02-22T06:06:02.477Z,129.03
2019-02-22T06:08:33.243Z,122.53
2019-02-22T06:11:04.004Z,114.50
2019-02-22T06:13:34.762Z,119.33
2019-02-22T06:16:05.606Z,116.33
2019-02-22T06:18:36.439Z,111.62
2019-02-22T06:21:07.280Z,109.80
2019-02-22T06:23:38.027Z,111.37
2019-02-22T06:26:09.315Z,112.92
2019-02-22T06:28:40.502Z,111.27
2019-02-22T06:31:11.321Z,114.72
2019-02-22T06:33:42.161Z,110.92
2019-02-22T06:36:13.043Z,106.92
2019-02-22T06:38:46.618Z,110.72
2019-02-22T06:41:17.016Z,108.67
2019-02-22T06:43:48.026Z,110.35
2019-02-22T06:46:19.649Z,110.25
2019-02-22T06:48:50.430Z,117.30
2019-02-22T06:51:21.243Z,119.60
2019-02-22T06:53:52.579Z,118.72
2019-02-22T06:56:24.355Z,111.83
2019-02-22T06:58:55.241Z,115.70
2019-02-22T07:01:27.127Z,113.00
2019-02-22T07:03:57.879Z,105.87
2019-02-22T07:06:28.656Z,105.03
2019-02-22T07:09:18.874Z,106.63
2019-02-22T07:12:02.731Z,108.95
2019-02-22T07:14:33.479Z,99.30
2019-02-22T07:17:04.374Z,103.60
2019-02-22T07:19:35.462Z,96.83
2019-02-22T07:22:06.322Z,97.60
2019-02-22T07:24:37.321Z,99.05
2019-02-22T07:27:08.886Z,96.82
2019-02-22T07:29:41.719Z,94.07
2019-02-22T07:32:12.678Z,96.03
2019-02-22T07:34:43.454Z,95.97
2019-02-22T07:37:14.437Z,94.70
2019-02-22T07:39:45.696Z,92.72
2019-02-22T07:42:19.326Z,92.00
2019-02-22T07:44:57.936Z,88.30
2019-02-22T07:47:29.619Z,90.60
2019-02-22T07:50:00.475Z,91.25
2019-02-22T07:52:31.277Z,86.00
2019-02-22T07:55:02.089Z,88.67
2019-02-22T07:57:32.836Z,83.50
2019-02-22T08:00:04.501Z,91.63
2019-02-22T08:02:35.659Z,97.57
2019-02-22T08:05:09.045Z,89.37
2019-02-22T08:07:41.651Z,89.50
2019-02-22T08:10:12.442Z,89.85
2019-02-22T08:12:43.290Z,91.73
2019-02-22T08:15:14.509Z,90.77
2019-02-22T08:17:45.359Z,87.67
2019-02-22T08:20:16.184Z,90.55
2019-02-22T08:22:46.895Z,88.55
2019-02-22T08:25:17.939Z,88.52
2019-02-22T08:27:53.920Z,84.32
2019-02-22T08:30:21.473Z,82.40
2019-02-22T08:32:52.245Z,82.40
2019-02-22T08:35:23.331Z,84.65
2019-02-22T08:37:54.371Z,80.17
2019-02-22T08:40:25.695Z,82.33
2019-02-22T08:42:56.534Z,75.10
2019-02-22T08:45:28.299Z,82.25
2019-02-22T08:48:00.007Z,79.13
2019-02-22T08:50:31.206Z,75.92
2019-02-22T08:53:01.955Z,81.57
2019-02-22T08:55:32.799Z,82.37
2019-02-22T08:58:03.687Z,72.22
2019-02-22T09:00:34.903Z,71.67
2019-02-22T09:03:05.632Z,69.85
2019-02-22T09:05:37.349Z,73.63
2019-02-22T09:08:09.430Z,68.62
2019-02-22T09:10:40.176Z,75.00
2019-02-22T09:13:11.113Z,73.83
2019-02-22T09:15:41.922Z,69.37
2019-02-22T09:18:13.416Z,63.97
2019-02-22T09:20:44.184Z,64.65
2019-02-22T09:23:15.979Z,58.63
2019-02-22T09:25:47.057Z,60.28
2019-02-22T09:28:18.502Z,60.83
2019-02-22T09:30:49.393Z,54.80
2019-02-22T09:33:20.189Z,55.33
2019-02-22T09:35:50.943Z,51.25
2019-02-22T09:38:21.757Z,52.20
2019-02-22T09:40:53.871Z,49.67
2019-02-22T09:43:24.611Z,44.98
2019-02-22T09:45:55.688Z,46.90
2019-02-22T09:48:26.420Z,43.68
2019-02-22T09:50:57.239Z,41.40
2019-02-22T09:53:28.081Z,40.50
2019-02-22T09:55:58.918Z,40.40
2019-02-22T09:58:29.731Z,38.65
2019-02-22T10:01:01.108Z,39.35
2019-02-22T10:03:32.171Z,38.10
2019-02-22T10:06:03.210Z,36.53
2019-02-22T10:08:34.728Z,37.17
2019-02-22T10:11:05.498Z,38.38
2019-02-22T10:13:36.609Z,38.00
2019-02-22T10:16:07.364Z,37.98
2019-02-22T10:18:38.115Z,38.25
2019-02-22T10:21:09.222Z,36.05
2019-02-22T10:23:39.950Z,37.85
2019-02-22T10:26:10.970Z,36.25
2019-02-22T10:28:41.690Z,37.00
2019-02-22T10:31:12.761Z,33.28
2019-02-22T10:33:43.888Z,30.35
2019-02-22T10:36:14.636Z,29.85
2019-02-22T10:38:46.431Z,27.80
2019-02-22T10:41:17.273Z,29.35
2019-02-22T10:43:48.073Z,27.75
2019-02-22T10:46:18.880Z,27.45
2019-02-22T10:48:49.647Z,27.65
2019-02-22T10:51:20.723Z,28.17
2019-02-22T10:53:51.465Z,27.25
2019-02-22T10:56:22.533Z,26.02
2019-02-22T10:58:53.291Z,24.07
2019-02-22T11:01:24.554Z,19.92
2019-02-22T11:03:55.292Z,16.52
2019-02-22T11:06:26.332Z,14.00
2019-02-22T11:08:57.076Z,8.38
2019-02-22T11:11:27.799Z,9.45
2019-02-22T11:13:58.532Z,8.58
2019-02-22T11:16:29.274Z,7.78
2019-02-22T11:19:00.006Z,7.22
2019-02-22T11:21:31.094Z,8.25
2019-02-22T11:24:02.131Z,9.23
2019-02-22T11:26:32.849Z,10.35
2019-02-22T11:29:03.943Z,10.43
2019-02-22T11:31:34.987Z,11.18
2019-02-22T11:34:05.729Z,10.60
2019-02-22T11:36:37.048Z,11.60
2019-02-22T11:39:07.886Z,11.25
2019-02-22T11:41:39.006Z,8.80
2019-02-22T11:44:10.103Z,8.58
2019-02-22T11:46:41.105Z,8.70
2019-02-22T11:49:11.830Z,9.75
2019-02-22T11:51:42.538Z,10.65
2019-02-22T11:54:13.275Z,10.55
2019-02-22T11:56:44.162Z,10.45
2019-02-22T11:59:15.362Z,10.63
2019-02-22T12:01:46.229Z,11.08
2019-02-22T12:04:18.033Z,10.25
2019-02-22T12:06:48.961Z,10.90
2019-02-22T12:09:19.744Z,10.20
2019-02-22T12:11:50.496Z,10.97
2019-02-22T12:14:21.385Z,11.60
2019-02-22T12:16:52.311Z,11.83
2019-02-22T12:19:23.070Z,11.73
2019-02-22T12:21:54.250Z,11.30
2019-02-22T12:24:25.020Z,10.53
2019-02-22T12:26:55.984Z,9.93
2019-02-22T12:29:27.026Z,9.83
2019-02-22T12:31:58.313Z,9.63
2019-02-22T12:34:29.085Z,10.23
2019-02-22T12:36:59.824Z,10.08
2019-02-22T12:39:30.701Z,10.60
2019-02-22T12:42:01.449Z,10.00
2019-02-22T12:44:32.238Z,7.45
2019-02-22T12:47:03.567Z,7.87
2019-02-22T12:49:34.599Z,7.10
2019-02-22T12:52:05.568Z,8.43
2019-02-22T12:54:36.612Z,9.20
2019-02-22T12:57:08.023Z,9.93
2019-02-22T12:59:39.102Z,9.08
2019-02-22T13:02:10.848Z,9.60
2019-02-22T13:04:41.563Z,9.30
2019-02-22T13:07:12.323Z,9.90
2019-02-22T13:09:43.034Z,9.23
2019-02-22T13:12:16.647Z,9.43
2019-02-22T13:14:47.077Z,10.53
2019-02-22T13:17:18.309Z,10.03
2019-02-22T13:19:49.652Z,10.35
2019-02-22T13:22:20.952Z,11.18
2019-02-22T13:24:52.055Z,10.03
2019-02-22T13:27:23.790Z,10.70
2019-02-22T13:29:54.504Z,10.77
2019-02-22T13:32:25.807Z,11.70
2019-02-22T13:34:57.613Z,11.33
2019-02-22T13:37:29.513Z,10.75
2019-02-22T13:40:00.514Z,11.07
2019-02-22T13:42:31.485Z,11.10
2019-02-22T13:45:02.728Z,10.35
2019-02-22T13:47:34.445Z,10.38
2019-02-22T13:50:07.181Z,10.23
2019-02-22T13:52:38.325Z,11.97
2019-02-22T13:55:09.856Z,10.75
2019-02-22T13:57:41.015Z,10.72
2019-02-22T14:00:16.476Z,11.57
2019-02-22T14:02:47.277Z,12.13
2019-02-22T14:05:18.061Z,10.38
2019-02-22T14:07:55.661Z,9.85
2019-02-22T14:10:29.761Z,11.18
2019-02-22T14:13:02.169Z,10.43
2019-02-22T14:15:38.114Z,11.00
2019-02-22T14:18:05.958Z,11.07
2019-02-22T14:20:36.876Z,12.25
2019-02-22T14:23:08.108Z,11.78
2019-02-22T14:25:38.863Z,12.50
2019-02-22T14:28:12.118Z,12.65
2019-02-22T14:30:42.977Z,10.13
2019-02-22T14:33:14.033Z,8.80
2019-02-22T14:35:44.766Z,7.33
2019-02-22T14:38:15.794Z,7.72
2019-02-22T14:40:46.532Z,8.55
2019-02-22T14:43:17.275Z,8.65
2019-02-22T14:45:52.141Z,9.13
2019-02-22T14:48:20.536Z,9.20
2019-02-22T14:50:52.854Z,9.25
2019-02-22T14:53:24.795Z,8.80
2019-02-22T14:55:55.528Z,9.58
2019-02-22T14:58:27.697Z,9.50
2019-02-22T15:00:58.533Z,9.70
2019-02-22T15:03:29.747Z,9.20
2019-02-22T15:06:01.491Z,9.60
2019-02-22T15:08:32.406Z,9.30
2019-02-22T15:11:04.674Z,9.18
2019-02-22T15:13:35.421Z,8.80
2019-02-22T15:16:24.987Z,9.28
2019-02-22T15:18:55.708Z,9.70
2019-02-22T15:21:26.464Z,9.95
2019-02-22T15:23:57.497Z,9.13
2019-02-22T15:26:28.294Z,8.53
2019-02-22T15:28:59.058Z,8.23
2019-02-22T15:31:36.188Z,6.05
2019-02-22T15:34:02.626Z,5.15
2019-02-22T15:36:33.687Z,6.37
2019-02-22T15:39:05.510Z,8.33
2019-02-22T15:41:38.019Z,8.20
2019-02-22T15:44:08.768Z,8.48
2019-02-22T15:46:39.640Z,8.25
2019-02-22T15:49:10.372Z,10.03
2019-02-22T15:51:42.198Z,9.58
2019-02-22T15:54:13.555Z,7.95
2019-02-22T15:56:44.345Z,8.77
2019-02-22T15:59:15.097Z,9.10
2019-02-22T16:01:54.955Z,8.10
2019-02-22T16:04:24.847Z,10.82
2019-02-22T16:06:55.729Z,10.03
2019-02-22T16:09:27.874Z,10.50
2019-02-22T16:11:59.016Z,7.28
2019-02-22T16:14:30.601Z,6.17
2019-02-22T16:17:01.384Z,5.58
2019-02-22T16:19:32.559Z,7.95
2019-02-22T16:22:03.305Z,10.25
2019-02-22T16:24:34.144Z,10.38
2019-02-22T16:27:06.295Z,8.38
2019-02-22T16:29:37.432Z,8.80
2019-02-22T16:32:08.285Z,9.03
2019-02-22T16:34:43.421Z,9.10
2019-02-22T16:37:11.524Z,10.32
2019-02-22T16:39:43.580Z,9.18
2019-02-22T16:42:14.414Z,8.15
2019-02-22T16:44:45.174Z,9.08
2019-02-22T16:47:15.979Z,9.63
2019-02-22T16:49:47.061Z,10.57
2019-02-22T16:52:17.957Z,9.80
2019-02-22T16:54:49.145Z,9.68
2019-02-22T16:57:20.056Z,9.43
2019-02-22T16:59:50.882Z,9.08
2019-02-22T17:02:21.938Z,9.78
2019-02-22T17:04:53.660Z,8.53
2019-02-22T17:07:27.766Z,8.88
2019-02-22T17:09:58.914Z,9.63
2019-02-22T17:12:29.661Z,11.13
2019-02-22T17:15:00.402Z,8.68
2019-02-22T17:17:31.142Z,12.50
2019-02-22T17:20:01.879Z,13.55
2019-02-22T17:22:32.810Z,17.02
2019-02-22T17:25:04.025Z,21.67
2019-02-22T17:27:34.906Z,27.47
2019-02-22T17:30:06.159Z,17.35
2019-02-22T17:32:38.013Z,17.32
2019-02-22T17:35:09.033Z,16.80
2019-02-22T17:37:39.833Z,15.60
2019-02-22T17:40:12.863Z,19.03
2019-02-22T17:42:43.898Z,17.32
2019-02-22T17:45:14.990Z,18.10
2019-02-22T17:47:45.732Z,19.05
2019-02-22T17:50:16.902Z,18.23
2019-02-22T17:52:48.064Z,19.75
2019-02-22T17:55:18.931Z,18.02
2019-02-22T17:57:49.680Z,19.55
2019-02-22T18:00:21.162Z,18.73
2019-02-22T18:02:51.933Z,19.70
2019-02-22T18:05:22.711Z,19.40
2019-02-22T18:07:53.493Z,20.60
2019-02-22T18:10:24.558Z,18.35
2019-02-22T18:12:55.401Z,18.75
2019-02-22T18:15:26.398Z,19.75
2019-02-22T18:17:57.170Z,21.70
2019-02-22T18:20:28.100Z,20.32
2019-02-22T18:22:59.203Z,19.90
2019-02-22T18:25:29.955Z,19.55
2019-02-22T18:28:00.822Z,21.75
2019-02-22T18:30:34.593Z,19.67
2019-02-22T18:33:05.482Z,20.80
2019-02-22T18:35:36.299Z,20.37
2019-02-22T18:38:07.235Z,22.32
2019-02-22T18:40:38.056Z,23.60
2019-02-22T18:43:09.074Z,24.30
2019-02-22T18:45:39.914Z,24.35
2019-02-22T18:48:10.678Z,23.70
2019-02-22T18:50:42.647Z,24.05
2019-02-22T18:53:13.590Z,23.32
2019-02-22T18:55:50.134Z,22.23
2019-02-22T18:58:17.760Z,22.80
2019-02-22T19:00:48.856Z,24.30
2019-02-22T19:03:19.652Z,23.38
2019-02-22T19:05:51.500Z,22.62
2019-02-22T19:08:32.063Z,25.97
2019-02-22T19:10:55.161Z,23.42
2019-02-22T19:13:26.199Z,23.47
2019-02-22T19:15:57.055Z,26.65
2019-02-22T19:18:28.398Z,23.05
2019-02-22T19:21:02.917Z,26.46
2019-02-22T19:23:33.739Z,25.72
2019-02-22T19:26:04.741Z,26.33
2019-02-22T19:28:35.588Z,26.37
2019-02-22T19:31:06.342Z,26.73
2019-02-22T19:33:37.223Z,26.05
2019-02-22T19:36:08.115Z,28.57
2019-02-22T19:38:38.962Z,26.37
2019-02-22T19:41:09.841Z,28.15
2019-02-22T19:43:41.174Z,28.75
2019-02-22T19:46:11.985Z,29.48
2019-02-22T19:48:43.026Z,30.45
2019-02-22T19:51:14.213Z,29.65
2019-02-22T19:53:45.033Z,31.75
2019-02-22T19:56:15.851Z,29.25
2019-02-22T19:58:47.101Z,31.17
2019-02-22T20:01:18.085Z,29.95
2019-02-22T20:03:49.057Z,30.00
2019-02-22T20:06:19.846Z,28.03
2019-02-22T20:08:50.671Z,29.45
2019-02-22T20:11:21.470Z,33.15
2019-02-22T20:13:52.461Z,37.40
2019-02-22T20:16:23.291Z,29.63
2019-02-22T20:18:54.588Z,25.88
2019-02-22T20:21:25.493Z,23.37
2019-02-22T20:23:56.707Z,25.68
2019-02-22T20:26:27.540Z,27.58
2019-02-22T20:28:58.411Z,27.50
2019-02-22T20:31:29.405Z,27.07
2019-02-22T20:34:00.257Z,30.13
2019-02-22T20:36:31.454Z,31.15
2019-02-22T20:39:04.506Z,29.82
2019-02-22T20:41:35.958Z,31.37
2019-02-22T20:44:06.877Z,32.25
2019-02-22T20:46:38.113Z,32.10
2019-02-22T20:49:09.028Z,32.63
2019-02-22T20:51:39.798Z,31.57
2019-02-22T20:54:10.588Z,32.45
2019-02-22T20:56:42.422Z,34.48
2019-02-22T20:59:13.240Z,32.23
2019-02-22T21:01:44.083Z,36.20
2019-02-22T21:04:14.910Z,42.15
2019-02-22T21:06:45.788Z,40.25
2019-02-22T21:09:16.607Z,39.45
2019-02-22T21:11:47.530Z,36.28
2019-02-22T21:14:18.362Z,39.53
2019-02-22T21:16:49.213Z,42.88
2019-02-22T21:19:20.109Z,43.75
2019-02-22T21:21:50.868Z,40.63
2019-02-22T21:24:21.915Z,39.05
2019-02-22T21:26:53.116Z,45.48
2019-02-22T21:29:23.950Z,47.55
2019-02-22T21:31:55.142Z,46.35
2019-02-22T21:34:26.179Z,46.63
2019-02-22T21:36:58.098Z,46.00
2019-02-22T21:39:28.906Z,46.23
2019-02-22T21:41:59.799Z,45.58
2019-02-22T21:44:30.634Z,43.87
2019-02-22T21:47:01.443Z,44.50
2019-02-22T21:49:33.411Z,45.17
2019-02-22T21:52:04.175Z,44.25
2019-02-22T21:54:34.928Z,45.90
2019-02-22T21:57:05.820Z,46.20
2019-02-22T21:59:36.578Z,42.75
2019-02-22T22:02:07.408Z,45.57
2019-02-22T22:04:38.162Z,44.13
2019-02-22T22:07:09.623Z,42.67
2019-02-22T22:09:40.633Z,44.08
2019-02-22T22:12:11.705Z,44.98
2019-02-22T22:14:42.539Z,45.60
2019-02-22T22:17:13.385Z,47.00
2019-02-22T22:19:44.132Z,45.60
2019-02-22T22:22:15.262Z,46.45
2019-02-22T22:24:47.303Z,42.75
2019-02-22T22:27:18.186Z,43.05
2019-02-22T22:29:48.969Z,46.37
2019-02-22T22:32:19.769Z,44.73
2019-02-22T22:34:50.555Z,44.98
2019-02-22T22:37:21.372Z,42.45
2019-02-22T22:39:52.247Z,47.00
2019-02-22T22:42:23.280Z,43.48
2019-02-22T22:44:54.121Z,43.40
2019-02-22T22:47:25.393Z,45.40
2019-02-22T22:49:56.398Z,45.65
2019-02-22T22:52:27.525Z,46.33
2019-02-22T22:55:00.278Z,44.15
2019-02-22T22:57:31.271Z,43.98
2019-02-22T23:00:02.267Z,43.70
2019-02-22T23:02:55.638Z,41.30
2019-02-22T23:05:26.725Z,40.40
2019-02-22T23:07:57.502Z,41.68
2019-02-22T23:10:28.349Z,41.08
2019-02-22T23:12:59.217Z,36.48
2019-02-22T23:15:31.350Z,38.13
2019-02-22T23:18:02.466Z,34.63
2019-02-22T23:20:34.540Z,37.83
2019-02-22T23:23:05.750Z,34.27
2019-02-22T23:25:36.514Z,29.95
2019-02-22T23:28:07.263Z,33.00
2019-02-22T23:30:38.161Z,33.88
2019-02-22T23:33:08.904Z,33.42
2019-02-22T23:35:39.838Z,33.78
2019-02-22T23:38:10.966Z,33.10
2019-02-22T23:40:42.016Z,32.08
2019-02-22T23:43:13.687Z,31.97
2019-02-22T23:45:44.702Z,32.20
2019-02-22T23:48:15.483Z,32.42
2019-02-22T23:50:46.259Z,34.98
2019-02-22T23:53:17.076Z,34.67
2019-02-22T23:55:48.160Z,35.38
2019-02-22T23:58:19.238Z,34.03
